createdAt,value
2018-10-21T00:00:08.091Z,7.9
2018-10-21T00:01:09.482Z,7.9
2018-10-21T00:02:11.113Z,7.9
2018-10-21T00:03:13.431Z,7.7
2018-10-21T00:04:14.993Z,7.8
2018-10-21T00:05:16.384Z,7.9
2018-10-21T00:06:17.957Z,7.9
2018-10-21T00:07:19.516Z,7.9
2018-10-21T00:08:21.066Z,7.9
2018-10-21T00:09:22.471Z,7.9
2018-10-21T00:10:23.884Z,7.9
2018-10-21T00:11:25.469Z,7.9
2018-10-21T00:12:27.011Z,7.9
2018-10-21T00:13:28.561Z,7.9
2018-10-21T00:14:30.134Z,7.9
2018-10-21T00:15:32.981Z,7.9
2018-10-21T00:16:34.638Z,7.9
2018-10-21T00:17:36.178Z,7.9
2018-10-21T00:18:37.719Z,7.9
2018-10-21T00:19:39.255Z,7.9
2018-10-21T00:20:40.815Z,7.9
2018-10-21T00:21:42.218Z,7.8
2018-10-21T00:22:43.789Z,7.8
2018-10-21T00:23:45.378Z,7.8
2018-10-21T00:24:46.929Z,7.8
2018-10-21T00:25:48.479Z,7.8
2018-10-21T00:26:50.012Z,7.9
2018-10-21T00:27:51.548Z,7.9
2018-10-21T00:28:53.138Z,7.9
2018-10-21T00:29:54.686Z,7.9
2018-10-21T00:30:56.275Z,7.9
2018-10-21T00:31:57.803Z,7.9
2018-10-21T00:32:59.680Z,7.9
2018-10-21T00:34:01.277Z,7.9
2018-10-21T00:35:02.818Z,7.9
2018-10-21T00:36:04.197Z,7.9
2018-10-21T00:37:05.735Z,7.8
2018-10-21T00:38:07.090Z,7.8
2018-10-21T00:39:08.629Z,7.8
2018-10-21T00:40:10.004Z,7.8
2018-10-21T00:41:11.557Z,7.8
2018-10-21T00:42:13.143Z,7.8
2018-10-21T00:43:14.692Z,7.8
2018-10-21T00:44:16.241Z,7.8
2018-10-21T00:45:18.330Z,7.8
2018-10-21T00:46:19.936Z,7.8
2018-10-21T00:47:21.319Z,7.8
2018-10-21T00:48:22.884Z,7.8
2018-10-21T00:49:24.257Z,7.8
2018-10-21T00:50:25.789Z,7.8
2018-10-21T00:51:27.169Z,7.8
2018-10-21T00:52:28.709Z,7.8
2018-10-21T00:53:30.268Z,7.8
2018-10-21T00:54:31.652Z,7.8
2018-10-21T00:55:33.040Z,7.8
2018-10-21T00:56:34.595Z,7.8
2018-10-21T00:57:36.128Z,7.8
2018-10-21T00:58:37.659Z,7.8
2018-10-21T00:59:39.219Z,7.8
2018-10-21T01:00:40.754Z,7.8
2018-10-21T01:01:42.122Z,7.8
2018-10-21T01:02:43.677Z,7.8
2018-10-21T01:03:45.221Z,7.8
2018-10-21T01:04:46.590Z,7.8
2018-10-21T01:05:48.134Z,7.8
2018-10-21T01:06:49.347Z,7.8
2018-10-21T01:07:50.716Z,7.8
2018-10-21T01:08:52.088Z,7.7
2018-10-21T01:09:53.663Z,7.7
2018-10-21T01:10:55.214Z,7.7
2018-10-21T01:11:56.774Z,7.6
2018-10-21T01:12:58.329Z,7.5
2018-10-21T01:13:59.857Z,7.5
2018-10-21T01:15:01.477Z,7.5
2018-10-21T01:16:03.065Z,7.5
2018-10-21T01:17:04.617Z,7.4
2018-10-21T01:18:06.158Z,7.4
2018-10-21T01:19:07.696Z,7.4
2018-10-21T01:20:09.242Z,7.3
2018-10-21T01:21:10.984Z,7.2
2018-10-21T01:22:12.567Z,7.2
2018-10-21T01:23:14.129Z,7.2
2018-10-21T01:24:15.684Z,7.1
2018-10-21T01:25:17.283Z,7.2
2018-10-21T01:26:18.825Z,7.1
2018-10-21T01:27:20.201Z,7.1
2018-10-21T01:28:21.757Z,7.2
2018-10-21T01:29:23.297Z,7.1
2018-10-21T01:30:24.847Z,7.1
2018-10-21T01:31:26.381Z,7.1
2018-10-21T01:32:27.936Z,7.1
2018-10-21T01:33:29.479Z,7.1
2018-10-21T01:34:31.023Z,7.1
2018-10-21T01:35:32.617Z,7.1
2018-10-21T01:36:35.708Z,7.1
2018-10-21T01:37:37.478Z,7.1
2018-10-21T01:38:39.019Z,7.1
2018-10-21T01:39:40.549Z,7.1
2018-10-21T01:40:42.103Z,7.1
2018-10-21T01:41:43.638Z,7.1
2018-10-21T01:42:45.016Z,7.1
2018-10-21T01:43:46.579Z,7.1
2018-10-21T01:44:48.119Z,7.1
2018-10-21T01:45:49.669Z,7.1
2018-10-21T01:46:51.208Z,7.1
2018-10-21T01:47:52.757Z,7.1
2018-10-21T01:48:54.157Z,7.1
2018-10-21T01:49:55.534Z,7.2
2018-10-21T01:50:57.389Z,7.2
2018-10-21T01:51:58.989Z,7.2
2018-10-21T01:53:00.590Z,7.1
2018-10-21T01:54:02.132Z,7.2
2018-10-21T01:55:03.687Z,7.2
2018-10-21T01:56:05.239Z,7.2
2018-10-21T01:57:07.381Z,7.2
2018-10-21T01:58:08.973Z,7.2
2018-10-21T01:59:10.528Z,7.2
2018-10-21T02:00:12.080Z,7.2
2018-10-21T02:01:13.465Z,7.2
2018-10-21T02:02:15.026Z,7.2
2018-10-21T02:03:17.548Z,7.2
2018-10-21T02:04:19.166Z,7.2
2018-10-21T02:05:20.706Z,7.2
2018-10-21T02:06:22.254Z,7.2
2018-10-21T02:07:23.809Z,7.2
2018-10-21T02:08:25.181Z,7.2
2018-10-21T02:09:26.391Z,7.2
2018-10-21T02:10:27.935Z,7.2
2018-10-21T02:11:29.488Z,7.3
2018-10-21T02:12:30.714Z,7.3
2018-10-21T02:13:32.276Z,7.3
2018-10-21T02:14:33.880Z,7.3
2018-10-21T02:15:35.439Z,7.3
2018-10-21T02:16:36.989Z,7.4
2018-10-21T02:17:38.541Z,7.4
2018-10-21T02:18:39.934Z,7.5
2018-10-21T02:19:41.486Z,7.5
2018-10-21T02:20:43.056Z,7.6
2018-10-21T02:21:44.611Z,7.7
2018-10-21T02:22:46.170Z,7.8
2018-10-21T02:23:47.558Z,7.8
2018-10-21T02:24:49.103Z,7.9
2018-10-21T02:25:50.479Z,7.9
2018-10-21T02:26:52.729Z,7.9
2018-10-21T02:27:54.350Z,7.9
2018-10-21T02:28:55.909Z,7.9
2018-10-21T02:29:57.484Z,7.9
2018-10-21T02:30:59.021Z,7.7
2018-10-21T02:32:00.562Z,7.8
2018-10-21T02:33:02.447Z,7.9
2018-10-21T02:34:04.022Z,7.9
2018-10-21T02:35:05.746Z,7.9
2018-10-21T02:36:07.259Z,7.9
2018-10-21T02:37:08.796Z,7.9
2018-10-21T02:38:10.384Z,7.9
2018-10-21T02:39:12.787Z,7.9
2018-10-21T02:40:14.246Z,7.9
2018-10-21T02:41:15.774Z,7.9
2018-10-21T02:42:17.501Z,7.9
2018-10-21T02:43:19.050Z,7.9
2018-10-21T02:44:20.654Z,7.9
2018-10-21T02:45:22.419Z,7.9
2018-10-21T02:46:24.000Z,7.9
2018-10-21T02:47:25.388Z,7.9
2018-10-21T02:48:26.930Z,7.9
2018-10-21T02:49:28.481Z,7.9
2018-10-21T02:50:30.016Z,7.9
2018-10-21T02:51:31.399Z,7.9
2018-10-21T02:52:32.941Z,7.9
2018-10-21T02:53:34.313Z,7.9
2018-10-21T02:54:35.842Z,7.9
2018-10-21T02:55:37.385Z,7.9
2018-10-21T02:56:38.943Z,7.9
2018-10-21T02:57:40.479Z,7.9
2018-10-21T02:58:42.045Z,7.9
2018-10-21T02:59:43.638Z,7.9
2018-10-21T03:00:45.187Z,7.9
2018-10-21T03:01:46.843Z,7.9
2018-10-21T03:02:48.240Z,7.9
2018-10-21T03:03:49.798Z,7.9
2018-10-21T03:04:51.294Z,7.9
2018-10-21T03:05:52.690Z,7.9
2018-10-21T03:06:54.286Z,7.9
2018-10-21T03:07:55.847Z,7.9
2018-10-21T03:08:57.265Z,7.9
2018-10-21T03:09:58.818Z,7.9
2018-10-21T03:11:00.362Z,7.9
2018-10-21T03:12:01.941Z,7.9
2018-10-21T03:13:03.493Z,7.9
2018-10-21T03:14:05.049Z,7.9
2018-10-21T03:15:07.075Z,7.9
2018-10-21T03:16:08.540Z,7.8
2018-10-21T03:17:10.099Z,7.8
2018-10-21T03:18:11.886Z,7.8
2018-10-21T03:19:13.430Z,7.7
2018-10-21T03:20:14.815Z,7.6
2018-10-21T03:21:17.252Z,7.5
2018-10-21T03:22:18.713Z,7.3
2018-10-21T03:23:20.254Z,7.2
2018-10-21T03:24:21.644Z,7.1
2018-10-21T03:25:23.196Z,7.2
2018-10-21T03:26:24.739Z,7.2
2018-10-21T03:27:26.276Z,7.1
2018-10-21T03:28:27.676Z,7.2
2018-10-21T03:29:29.075Z,7.2
2018-10-21T03:30:30.618Z,7.1
2018-10-21T03:31:32.031Z,7.1
2018-10-21T03:32:33.601Z,7.1
2018-10-21T03:33:35.962Z,7.1
2018-10-21T03:34:37.552Z,7.1
2018-10-21T03:35:38.944Z,7.1
2018-10-21T03:36:40.968Z,7.1
2018-10-21T03:37:42.528Z,7.2
2018-10-21T03:38:44.081Z,7.1
2018-10-21T03:39:45.663Z,7.2
2018-10-21T03:40:47.218Z,7.2
2018-10-21T03:41:48.592Z,7.2
2018-10-21T03:42:50.145Z,7.2
2018-10-21T03:43:51.688Z,7.2
2018-10-21T03:44:53.222Z,7.2
2018-10-21T03:45:55.053Z,7.2
2018-10-21T03:46:56.620Z,7.2
2018-10-21T03:47:57.999Z,7.2
2018-10-21T03:48:59.241Z,7.2
2018-10-21T03:50:00.614Z,7.2
2018-10-21T03:51:01.842Z,7.2
2018-10-21T03:52:03.776Z,7.2
2018-10-21T03:53:05.208Z,7.2
2018-10-21T03:54:06.578Z,7.2
2018-10-21T03:55:07.953Z,7.3
2018-10-21T03:56:09.330Z,7.3
2018-10-21T03:57:10.882Z,7.4
2018-10-21T03:58:13.284Z,7.5
2018-10-21T03:59:14.914Z,7.6
2018-10-21T04:00:16.506Z,7.7
2018-10-21T04:01:18.065Z,7.8
2018-10-21T04:02:19.620Z,7.9
2018-10-21T04:03:21.269Z,7.9
2018-10-21T04:04:22.808Z,7.9
2018-10-21T04:05:24.176Z,7.9
2018-10-21T04:06:25.705Z,7.9
2018-10-21T04:07:27.254Z,7.9
2018-10-21T04:08:28.813Z,7.9
2018-10-21T04:09:30.380Z,7.9
2018-10-21T04:10:31.963Z,7.3
2018-10-21T04:11:33.493Z,7.4
2018-10-21T04:12:34.882Z,7.5
2018-10-21T04:13:36.448Z,7.6
2018-10-21T04:14:37.836Z,7.7
2018-10-21T04:15:39.372Z,7.8
2018-10-21T04:16:40.959Z,7.8
2018-10-21T04:17:42.322Z,7.8
2018-10-21T04:18:43.967Z,7.9
2018-10-21T04:19:45.532Z,7.9
2018-10-21T04:20:46.780Z,7.9
2018-10-21T04:21:48.327Z,7.9
2018-10-21T04:22:49.878Z,7.9
2018-10-21T04:23:51.429Z,7.9
2018-10-21T04:24:52.648Z,7.9
2018-10-21T04:25:54.195Z,7.9
2018-10-21T04:26:55.754Z,7.8
2018-10-21T04:27:57.570Z,7.8
2018-10-21T04:28:59.125Z,7.8
2018-10-21T04:30:00.691Z,7.8
2018-10-21T04:31:01.761Z,7.8
2018-10-21T04:32:03.325Z,7.8
2018-10-21T04:33:04.709Z,7.8
2018-10-21T04:34:06.699Z,7.8
2018-10-21T04:35:08.289Z,7.8
2018-10-21T04:36:09.831Z,7.8
2018-10-21T04:37:11.219Z,7.8
2018-10-21T04:38:12.757Z,7.8
2018-10-21T04:39:13.968Z,7.8
2018-10-21T04:40:15.970Z,7.8
2018-10-21T04:41:17.543Z,7.8
2018-10-21T04:42:19.084Z,7.7
2018-10-21T04:43:20.635Z,7.7
2018-10-21T04:44:22.020Z,7.7
2018-10-21T04:45:23.549Z,7.7
2018-10-21T04:46:25.475Z,7.7
2018-10-21T04:47:26.767Z,7.8
2018-10-21T04:48:28.335Z,7.8
2018-10-21T04:49:29.728Z,7.8
2018-10-21T04:50:31.099Z,7.9
2018-10-21T04:51:32.476Z,7.9
2018-10-21T04:52:34.051Z,7.9
2018-10-21T04:53:35.623Z,7.9
2018-10-21T04:54:37.184Z,7.9
2018-10-21T04:55:38.409Z,7.9
2018-10-21T04:56:39.947Z,7.9
2018-10-21T04:57:41.345Z,7.9
2018-10-21T04:58:42.898Z,7.8
2018-10-21T04:59:44.451Z,7.8
2018-10-21T05:00:46.974Z,7.8
2018-10-21T05:01:48.600Z,7.8
2018-10-21T05:02:49.995Z,7.8
2018-10-21T05:03:51.388Z,7.8
2018-10-21T05:04:52.922Z,7.8
2018-10-21T05:05:54.509Z,7.8
2018-10-21T05:06:55.878Z,7.9
2018-10-21T05:07:57.439Z,7.9
2018-10-21T05:08:58.829Z,7.9
2018-10-21T05:10:00.644Z,7.3
2018-10-21T05:11:02.218Z,7.4
2018-10-21T05:12:03.765Z,7.4
2018-10-21T05:13:05.335Z,7.5
2018-10-21T05:14:06.751Z,7.5
2018-10-21T05:15:08.348Z,7.5
2018-10-21T05:16:10.563Z,7.5
2018-10-21T05:17:12.182Z,7.4
2018-10-21T05:18:13.718Z,7.3
2018-10-21T05:19:15.083Z,7.2
2018-10-21T05:20:16.633Z,7.2
2018-10-21T05:21:18.013Z,7.2
2018-10-21T05:22:20.258Z,7.2
2018-10-21T05:23:21.675Z,7.2
2018-10-21T05:24:23.219Z,7.2
2018-10-21T05:25:24.778Z,7.2
2018-10-21T05:26:26.315Z,7.1
2018-10-21T05:27:27.848Z,7.2
2018-10-21T05:28:29.424Z,7.2
2018-10-21T05:29:31.039Z,7.2
2018-10-21T05:30:32.589Z,7.2
2018-10-21T05:31:34.153Z,7.2
2018-10-21T05:32:35.690Z,7.2
2018-10-21T05:33:37.226Z,7.2
2018-10-21T05:34:38.681Z,7.2
2018-10-21T05:35:40.067Z,7.2
2018-10-21T05:36:41.620Z,7.2
2018-10-21T05:37:43.352Z,7.2
2018-10-21T05:38:44.917Z,7.2
2018-10-21T05:39:46.308Z,7.2
2018-10-21T05:40:47.890Z,7.2
2018-10-21T05:41:49.424Z,7.2
2018-10-21T05:42:51.032Z,7.2
2018-10-21T05:43:52.569Z,7.2
2018-10-21T05:44:54.111Z,7.2
2018-10-21T05:45:55.777Z,7.2
2018-10-21T05:46:57.458Z,7.3
2018-10-21T05:47:59.039Z,7.3
2018-10-21T05:49:00.597Z,7.4
2018-10-21T05:50:02.143Z,7.4
2018-10-21T05:51:03.715Z,7.4
2018-10-21T05:52:05.721Z,7.5
2018-10-21T05:53:07.281Z,7.5
2018-10-21T05:54:08.849Z,7.6
2018-10-21T05:55:10.405Z,7.7
2018-10-21T05:56:11.970Z,7.7
2018-10-21T05:57:13.518Z,7.8
2018-10-21T05:58:15.499Z,7.9
2018-10-21T05:59:16.906Z,7.9
2018-10-21T06:00:18.479Z,7.9
2018-10-21T06:01:20.029Z,7.9
2018-10-21T06:02:21.589Z,7.9
2018-10-21T06:03:22.967Z,7.9
2018-10-21T06:04:24.489Z,7.9
2018-10-21T06:05:26.045Z,7.9
2018-10-21T06:06:27.601Z,7.9
2018-10-21T06:07:29.002Z,7.9
2018-10-21T06:08:30.559Z,7.9
2018-10-21T06:09:32.116Z,7.9
2018-10-21T06:10:33.861Z,7.9
2018-10-21T06:11:35.416Z,7.9
2018-10-21T06:12:36.797Z,7.9
2018-10-21T06:13:38.333Z,7.9
2018-10-21T06:14:39.903Z,7.9
2018-10-21T06:15:41.717Z,7.9
2018-10-21T06:16:43.321Z,7.9
2018-10-21T06:17:44.877Z,7.9
2018-10-21T06:18:46.450Z,7.9
2018-10-21T06:19:47.819Z,7.9
2018-10-21T06:20:49.518Z,7.9
2018-10-21T06:21:51.200Z,7.8
2018-10-21T06:22:52.824Z,7.9
2018-10-21T06:23:54.380Z,7.9
2018-10-21T06:24:55.926Z,7.9
2018-10-21T06:25:57.528Z,7.9
2018-10-21T06:26:59.132Z,7.9
2018-10-21T06:28:00.730Z,7.9
2018-10-21T06:29:02.292Z,7.9
2018-10-21T06:30:03.864Z,7.7
2018-10-21T06:31:05.240Z,7.9
2018-10-21T06:32:06.829Z,7.9
2018-10-21T06:33:08.614Z,7.9
2018-10-21T06:34:10.204Z,7.9
2018-10-21T06:35:11.642Z,7.2
2018-10-21T06:36:13.188Z,7.3
2018-10-21T06:37:14.572Z,7.4
2018-10-21T06:38:16.131Z,7.4
2018-10-21T06:39:18.531Z,7.4
2018-10-21T06:40:20.116Z,7.4
2018-10-21T06:41:21.692Z,7.4
2018-10-21T06:42:23.230Z,7.3
2018-10-21T06:43:24.636Z,7.3
2018-10-21T06:44:26.013Z,7.2
2018-10-21T06:45:28.783Z,7.2
2018-10-21T06:46:30.179Z,7.2
2018-10-21T06:47:31.289Z,7.2
2018-10-21T06:48:33.740Z,7.2
2018-10-21T06:49:35.395Z,7.2
2018-10-21T06:50:36.947Z,7.2
2018-10-21T06:51:38.484Z,7.2
2018-10-21T06:52:40.024Z,7.2
2018-10-21T06:53:41.402Z,7.2
2018-10-21T06:54:43.141Z,7.2
2018-10-21T06:55:44.620Z,7.2
2018-10-21T06:56:47.711Z,7.2
2018-10-21T06:57:50.314Z,7.2
2018-10-21T06:58:51.942Z,7.2
2018-10-21T06:59:53.506Z,7.2
2018-10-21T07:00:55.059Z,7.2
2018-10-21T07:01:56.446Z,7.2
2018-10-21T07:02:57.835Z,7.2
2018-10-21T07:03:59.636Z,7.2
2018-10-21T07:05:01.912Z,7.2
2018-10-21T07:06:03.401Z,7.2
2018-10-21T07:07:04.962Z,7.2
2018-10-21T07:08:06.357Z,7.2
2018-10-21T07:09:07.750Z,7.2
2018-10-21T07:10:09.653Z,7.2
2018-10-21T07:11:11.110Z,7.2
2018-10-21T07:12:12.676Z,7.2
2018-10-21T07:13:14.067Z,7.2
2018-10-21T07:14:15.632Z,7.2
2018-10-21T07:15:17.744Z,7.2
2018-10-21T07:16:20.237Z,7.2
2018-10-21T07:17:21.767Z,7.2
2018-10-21T07:18:23.335Z,7.2
2018-10-21T07:19:24.882Z,7.1
2018-10-21T07:20:26.277Z,7.2
2018-10-21T07:21:27.856Z,7.2
2018-10-21T07:22:29.414Z,7.1
2018-10-21T07:23:30.818Z,7.2
2018-10-21T07:24:32.368Z,7.1
2018-10-21T07:25:33.750Z,7.1
2018-10-21T07:26:35.286Z,7.2
2018-10-21T07:27:36.885Z,7.1
2018-10-21T07:28:39.337Z,7.1
2018-10-21T07:29:40.965Z,7.2
2018-10-21T07:30:42.010Z,7.2
2018-10-21T07:31:43.409Z,7.2
2018-10-21T07:32:44.813Z,7.2
2018-10-21T07:33:46.045Z,7.1
2018-10-21T07:34:47.612Z,7.1
2018-10-21T07:35:49.177Z,7.2
2018-10-21T07:36:50.593Z,7.2
2018-10-21T07:37:52.145Z,7.2
2018-10-21T07:38:53.384Z,7.2
2018-10-21T07:39:55.123Z,7.2
2018-10-21T07:40:56.722Z,7.2
2018-10-21T07:41:58.489Z,7.2
2018-10-21T07:43:00.048Z,7.2
2018-10-21T07:44:01.613Z,7.2
2018-10-21T07:45:03.140Z,7.2
2018-10-21T07:46:05.260Z,7.2
2018-10-21T07:47:06.830Z,7.3
2018-10-21T07:48:08.410Z,7.3
2018-10-21T07:49:10.809Z,7.4
2018-10-21T07:50:12.130Z,7.5
2018-10-21T07:51:13.713Z,7.6
2018-10-21T07:52:15.475Z,7.7
2018-10-21T07:53:17.131Z,7.8
2018-10-21T07:54:18.540Z,7.9
2018-10-21T07:55:20.309Z,7.9
2018-10-21T07:56:21.708Z,7.9
2018-10-21T07:57:23.284Z,7.9
2018-10-21T07:58:24.519Z,7.7
2018-10-21T07:59:26.448Z,7.8
2018-10-21T08:00:28.010Z,7.9
2018-10-21T08:01:29.866Z,7.9
2018-10-21T08:02:31.212Z,7.9
2018-10-21T08:03:32.824Z,7.8
2018-10-21T08:04:34.390Z,7.9
2018-10-21T08:05:35.780Z,7.6
2018-10-21T08:06:38.380Z,7.8
2018-10-21T08:07:40.121Z,7.9
2018-10-21T08:08:42.363Z,7.9
2018-10-21T08:09:43.683Z,7.9
2018-10-21T08:10:45.262Z,7.9
2018-10-21T08:11:46.855Z,7.9
2018-10-21T08:12:48.251Z,7.7
2018-10-21T08:13:50.051Z,7.8
2018-10-21T08:14:52.774Z,7.9
2018-10-21T08:15:54.460Z,7.9
2018-10-21T08:16:56.016Z,7.9
2018-10-21T08:17:57.428Z,7.8
2018-10-21T08:18:58.996Z,7.9
2018-10-21T08:20:00.547Z,7.9
2018-10-21T08:21:02.345Z,7.9
2018-10-21T08:22:04.370Z,7.9
2018-10-21T08:23:05.957Z,7.9
2018-10-21T08:24:07.387Z,7.9
2018-10-21T08:25:08.774Z,7.9
2018-10-21T08:26:10.360Z,7.9
2018-10-21T08:27:12.297Z,7.9
2018-10-21T08:28:14.648Z,7.9
2018-10-21T08:29:16.231Z,7.9
2018-10-21T08:30:17.632Z,7.9
2018-10-21T08:31:19.176Z,7.9
2018-10-21T08:32:20.404Z,7.9
2018-10-21T08:33:21.961Z,7.9
2018-10-21T08:34:23.553Z,7.9
2018-10-21T08:35:25.128Z,7.9
2018-10-21T08:36:26.707Z,7.9
2018-10-21T08:37:28.320Z,7.9
2018-10-21T08:38:29.872Z,7.9
2018-10-21T08:39:31.282Z,7.9
2018-10-21T08:40:32.667Z,7.9
2018-10-21T08:41:34.250Z,7.8
2018-10-21T08:42:35.860Z,7.9
2018-10-21T08:43:37.434Z,7.8
2018-10-21T08:44:38.842Z,7.8
2018-10-21T08:45:40.416Z,7.9
2018-10-21T08:46:42.648Z,7.9
2018-10-21T08:47:44.393Z,7.9
2018-10-21T08:48:45.957Z,7.9
2018-10-21T08:49:47.805Z,7.9
2018-10-21T08:50:49.399Z,7.9
2018-10-21T08:51:51.008Z,7.9
2018-10-21T08:52:52.580Z,7.8
2018-10-21T08:53:54.280Z,7.8
2018-10-21T08:54:55.999Z,7.7
2018-10-21T08:55:58.304Z,7.6
2018-10-21T08:56:59.990Z,7.5
2018-10-21T08:58:01.842Z,7.4
2018-10-21T08:59:03.250Z,7.2
2018-10-21T09:00:04.822Z,7.2
2018-10-21T09:01:06.783Z,7.2
2018-10-21T09:02:09.147Z,7.2
2018-10-21T09:03:10.770Z,7.1
2018-10-21T09:04:12.590Z,7.1
2018-10-21T09:05:14.300Z,7.1
2018-10-21T09:06:15.886Z,7.2
2018-10-21T09:07:17.961Z,7.2
2018-10-21T09:08:19.224Z,7.2
2018-10-21T09:09:20.622Z,7.2
2018-10-21T09:10:23.577Z,7.2
2018-10-21T09:11:25.200Z,7.2
2018-10-21T09:12:26.790Z,7.1
2018-10-21T09:13:28.360Z,7.2
2018-10-21T09:14:29.959Z,7.2
2018-10-21T09:15:32.224Z,7.2
2018-10-21T09:16:34.657Z,7.2
2018-10-21T09:17:35.814Z,7.2
2018-10-21T09:18:37.220Z,7.2
2018-10-21T09:19:38.784Z,7.2
2018-10-21T09:20:40.339Z,7.2
2018-10-21T09:21:41.728Z,7.2
2018-10-21T09:22:43.331Z,7.2
2018-10-21T09:23:45.341Z,7.2
2018-10-21T09:24:46.961Z,7.2
2018-10-21T09:25:48.520Z,7.2
2018-10-21T09:26:50.091Z,7.2
2018-10-21T09:27:51.649Z,7.2
2018-10-21T09:28:53.201Z,7.2
2018-10-21T09:29:54.437Z,7.2
2018-10-21T09:30:56.273Z,7.2
2018-10-21T09:31:57.850Z,7.3
2018-10-21T09:32:59.083Z,7.3
2018-10-21T09:34:00.769Z,7.3
2018-10-21T09:35:02.010Z,7.4
2018-10-21T09:36:03.583Z,7.4
2018-10-21T09:37:05.551Z,7.5
2018-10-21T09:38:07.020Z,7.5
2018-10-21T09:39:08.598Z,7.6
2018-10-21T09:40:10.812Z,7.7
2018-10-21T09:41:12.409Z,7.8
2018-10-21T09:42:14.683Z,7.8
2018-10-21T09:43:17.088Z,7.9
2018-10-21T09:44:18.752Z,7.9
2018-10-21T09:45:20.312Z,7.9
2018-10-21T09:46:21.874Z,7.9
2018-10-21T09:47:23.281Z,7.9
2018-10-21T09:48:24.684Z,7.9
2018-10-21T09:49:26.101Z,7.9
2018-10-21T09:50:27.352Z,7.7
2018-10-21T09:51:28.915Z,7.8
2018-10-21T09:52:30.481Z,7.9
2018-10-21T09:53:32.051Z,7.9
2018-10-21T09:54:33.609Z,7.9
2018-10-21T09:55:35.201Z,7.9
2018-10-21T09:56:36.766Z,7.9
2018-10-21T09:57:38.328Z,7.6
2018-10-21T09:58:40.643Z,7.8
2018-10-21T09:59:42.110Z,7.9
2018-10-21T10:00:43.529Z,7.9
2018-10-21T10:01:45.099Z,7.9
2018-10-21T10:02:46.670Z,7.8
2018-10-21T10:03:48.617Z,7.9
2018-10-21T10:04:50.203Z,7.5
2018-10-21T10:05:51.598Z,7.7
2018-10-21T10:06:53.168Z,7.8
2018-10-21T10:07:54.561Z,7.8
2018-10-21T10:08:56.141Z,7.9
2018-10-21T10:09:57.673Z,7.9
2018-10-21T10:10:59.314Z,7.9
2018-10-21T10:12:00.574Z,7.9
2018-10-21T10:13:02.509Z,7.9
2018-10-21T10:14:03.853Z,7.9
2018-10-21T10:15:05.422Z,7.9
2018-10-21T10:16:07.635Z,7.9
2018-10-21T10:17:09.239Z,7.9
2018-10-21T10:18:10.841Z,7.9
2018-10-21T10:19:13.164Z,7.9
2018-10-21T10:20:14.809Z,7.9
2018-10-21T10:21:16.220Z,7.9
2018-10-21T10:22:18.395Z,7.9
2018-10-21T10:23:20.526Z,7.3
2018-10-21T10:24:22.117Z,7.4
2018-10-21T10:25:23.695Z,7.5
2018-10-21T10:26:25.292Z,7.5
2018-10-21T10:27:26.709Z,7.5
2018-10-21T10:28:28.106Z,7.5
2018-10-21T10:29:29.656Z,7.4
2018-10-21T10:30:32.079Z,7.3
2018-10-21T10:31:33.572Z,7.2
2018-10-21T10:32:35.141Z,7.2
2018-10-21T10:33:36.539Z,7.2
2018-10-21T10:34:38.088Z,7.2
2018-10-21T10:35:39.668Z,7.2
2018-10-21T10:36:41.231Z,7.2
2018-10-21T10:37:42.666Z,7.2
2018-10-21T10:38:44.063Z,7.2
2018-10-21T10:39:45.470Z,7.2
2018-10-21T10:40:47.040Z,7.1
2018-10-21T10:41:49.088Z,7.1
2018-10-21T10:42:50.518Z,7.1
2018-10-21T10:43:52.078Z,7.1
2018-10-21T10:44:53.633Z,7.1
2018-10-21T10:45:55.366Z,7.1
2018-10-21T10:46:56.710Z,7.1
2018-10-21T10:47:58.115Z,7.1
2018-10-21T10:48:59.956Z,7.2
2018-10-21T10:50:01.542Z,7.1
2018-10-21T10:51:03.116Z,7.2
2018-10-21T10:52:04.901Z,7.1
2018-10-21T10:53:07.093Z,7.1
2018-10-21T10:54:08.728Z,7.1
2018-10-21T10:55:10.972Z,7.2
2018-10-21T10:56:12.537Z,7.2
2018-10-21T10:57:13.938Z,7.2
2018-10-21T10:58:15.936Z,7.2
2018-10-21T10:59:17.537Z,7.2
2018-10-21T11:00:19.100Z,7.2
2018-10-21T11:01:20.671Z,7.2
2018-10-21T11:02:22.222Z,7.2
2018-10-21T11:03:23.993Z,7.2
2018-10-21T11:04:25.591Z,7.2
2018-10-21T11:05:27.175Z,7.2
2018-10-21T11:06:29.451Z,7.2
2018-10-21T11:07:31.034Z,7.2
2018-10-21T11:08:32.616Z,7.2
2018-10-21T11:09:34.170Z,7.2
2018-10-21T11:10:35.556Z,7.2
2018-10-21T11:11:37.139Z,7.2
2018-10-21T11:12:38.369Z,7.2
2018-10-21T11:13:39.791Z,7.2
2018-10-21T11:14:41.912Z,7.2
2018-10-21T11:15:43.479Z,7.3
2018-10-21T11:16:45.059Z,7.3
2018-10-21T11:17:46.698Z,7.4
2018-10-21T11:18:48.099Z,7.5
2018-10-21T11:19:49.514Z,7.6
2018-10-21T11:20:51.072Z,7.7
2018-10-21T11:21:53.115Z,7.8
2018-10-21T11:22:55.732Z,7.9
2018-10-21T11:23:57.406Z,7.9
2018-10-21T11:24:59.158Z,7.9
2018-10-21T11:26:00.556Z,7.9
2018-10-21T11:27:01.963Z,7.9
2018-10-21T11:28:03.719Z,7.9
2018-10-21T11:29:05.380Z,7.9
2018-10-21T11:30:06.779Z,7.9
2018-10-21T11:31:08.770Z,7.9
2018-10-21T11:32:10.419Z,7.9
2018-10-21T11:33:11.979Z,7.9
2018-10-21T11:34:14.304Z,7.9
2018-10-21T11:35:15.853Z,7.9
2018-10-21T11:36:17.277Z,7.9
2018-10-21T11:37:20.177Z,7.9
2018-10-21T11:38:21.828Z,7.9
2018-10-21T11:39:23.404Z,7.9
2018-10-21T11:40:25.003Z,7.9
2018-10-21T11:41:26.228Z,7.9
2018-10-21T11:42:27.467Z,7.9
2018-10-21T11:43:28.857Z,7.9
2018-10-21T11:44:30.349Z,7.9
2018-10-21T11:45:32.066Z,7.9
2018-10-21T11:46:34.575Z,7.9
2018-10-21T11:47:35.865Z,7.9
2018-10-21T11:48:37.447Z,7.9
2018-10-21T11:49:39.044Z,7.9
2018-10-21T11:50:40.449Z,7.9
2018-10-21T11:51:41.841Z,7.9
2018-10-21T11:52:43.819Z,7.9
2018-10-21T11:53:45.104Z,7.9
2018-10-21T11:54:46.321Z,7.9
2018-10-21T11:55:47.893Z,7.9
2018-10-21T11:56:49.848Z,7.9
2018-10-21T11:57:51.398Z,7.9
2018-10-21T11:58:52.813Z,7.9
2018-10-21T11:59:54.210Z,7.9
2018-10-21T12:00:55.779Z,7.9
2018-10-21T12:01:57.345Z,7.9
2018-10-21T12:02:58.577Z,7.9
2018-10-21T12:04:00.436Z,7.9
2018-10-21T12:05:02.032Z,7.9
2018-10-21T12:06:03.607Z,7.9
2018-10-21T12:07:05.472Z,7.9
2018-10-21T12:08:07.048Z,7.9
2018-10-21T12:09:08.621Z,7.9
2018-10-21T12:10:10.474Z,7.9
2018-10-21T12:11:12.126Z,7.9
2018-10-21T12:12:13.739Z,7.9
2018-10-21T12:13:16.158Z,7.9
2018-10-21T12:14:17.711Z,7.9
2018-10-21T12:15:19.288Z,7.9
2018-10-21T12:16:21.127Z,7.9
2018-10-21T12:17:22.707Z,7.9
2018-10-21T12:18:24.282Z,7.9
2018-10-21T12:19:25.846Z,7.9
2018-10-21T12:20:27.081Z,7.9
2018-10-21T12:21:28.479Z,7.5
2018-10-21T12:22:30.668Z,7.6
2018-10-21T12:23:33.089Z,7.7
2018-10-21T12:24:34.589Z,7.7
2018-10-21T12:25:36.896Z,7.6
2018-10-21T12:26:38.306Z,7.6
2018-10-21T12:27:39.849Z,7.5
2018-10-21T12:28:41.244Z,7.4
2018-10-21T12:29:42.638Z,7.3
2018-10-21T12:30:44.192Z,7.2
2018-10-21T12:31:45.761Z,7.2
2018-10-21T12:32:47.145Z,7.2
2018-10-21T12:33:48.715Z,7.2
2018-10-21T12:34:50.277Z,7.2
2018-10-21T12:35:51.814Z,7.2
2018-10-21T12:36:53.368Z,7.2
2018-10-21T12:37:54.940Z,7.2
2018-10-21T12:38:56.321Z,7.2
2018-10-21T12:39:58.118Z,7.2
2018-10-21T12:40:59.855Z,7.2
2018-10-21T12:42:01.191Z,7.2
2018-10-21T12:43:03.159Z,7.2
2018-10-21T12:44:04.569Z,7.2
2018-10-21T12:45:06.138Z,7.2
2018-10-21T12:46:08.137Z,7.2
2018-10-21T12:47:10.326Z,7.2
2018-10-21T12:48:11.925Z,7.2
2018-10-21T12:49:14.048Z,7.2
2018-10-21T12:50:15.718Z,7.2
2018-10-21T12:51:17.293Z,7.2
2018-10-21T12:52:18.924Z,7.2
2018-10-21T12:53:20.489Z,7.2
2018-10-21T12:54:22.373Z,7.2
2018-10-21T12:55:23.962Z,7.2
2018-10-21T12:56:25.548Z,7.2
2018-10-21T12:57:27.117Z,7.2
2018-10-21T12:58:28.682Z,7.2
2018-10-21T12:59:30.244Z,7.2
2018-10-21T13:00:31.807Z,7.3
2018-10-21T13:01:33.381Z,7.3
2018-10-21T13:02:34.982Z,7.3
2018-10-21T13:03:36.380Z,7.3
2018-10-21T13:04:37.967Z,7.3
2018-10-21T13:05:39.363Z,7.3
2018-10-21T13:06:40.773Z,7.3
2018-10-21T13:07:42.347Z,7.3
2018-10-21T13:08:43.921Z,7.3
2018-10-21T13:09:45.491Z,7.4
2018-10-21T13:10:47.207Z,7.4
2018-10-21T13:11:49.027Z,7.4
2018-10-21T13:12:50.639Z,7.5
2018-10-21T13:13:52.229Z,7.6
2018-10-21T13:14:53.613Z,7.6
2018-10-21T13:15:55.255Z,7.7
2018-10-21T13:16:56.838Z,7.8
2018-10-21T13:17:58.231Z,7.8
2018-10-21T13:19:00.177Z,7.8
2018-10-21T13:20:01.594Z,7.8
2018-10-21T13:21:03.027Z,7.8
2018-10-21T13:22:04.835Z,7.8
2018-10-21T13:23:06.488Z,7.8
2018-10-21T13:24:07.889Z,7.8
2018-10-21T13:25:09.865Z,7.8
2018-10-21T13:26:11.311Z,7.8
2018-10-21T13:27:12.724Z,7.8
2018-10-21T13:28:15.240Z,7.8
2018-10-21T13:29:16.847Z,7.7
2018-10-21T13:30:18.398Z,7.7
2018-10-21T13:31:20.261Z,7.7
2018-10-21T13:32:21.829Z,7.7
2018-10-21T13:33:23.389Z,7.8
2018-10-21T13:34:25.240Z,7.8
2018-10-21T13:35:26.629Z,7.8
2018-10-21T13:36:28.039Z,7.9
2018-10-21T13:37:29.599Z,7.9
2018-10-21T13:38:31.005Z,7.9
2018-10-21T13:39:32.571Z,7.8
2018-10-21T13:40:34.939Z,7.9
2018-10-21T13:41:36.408Z,7.9
2018-10-21T13:42:37.949Z,7.9
2018-10-21T13:43:39.600Z,7.9
2018-10-21T13:44:40.985Z,7.9
2018-10-21T13:45:42.758Z,7.9
2018-10-21T13:46:44.360Z,7.9
2018-10-21T13:47:45.939Z,7.9
2018-10-21T13:48:47.403Z,7.9
2018-10-21T13:49:48.799Z,7.9
2018-10-21T13:50:50.352Z,7.9
2018-10-21T13:51:53.302Z,7.8
2018-10-21T13:52:55.513Z,7.9
2018-10-21T13:53:57.105Z,7.9
2018-10-21T13:54:58.899Z,7.9
2018-10-21T13:56:00.488Z,7.9
2018-10-21T13:57:01.899Z,7.9
2018-10-21T13:58:03.644Z,7.9
2018-10-21T13:59:05.872Z,7.9
2018-10-21T14:00:07.364Z,7.9
2018-10-21T14:01:10.150Z,7.9
2018-10-21T14:02:11.529Z,7.9
2018-10-21T14:03:13.106Z,7.9
2018-10-21T14:04:15.286Z,7.9
2018-10-21T14:05:16.958Z,7.5
2018-10-21T14:06:18.520Z,7.6
2018-10-21T14:07:20.687Z,7.7
2018-10-21T14:08:21.854Z,7.7